sensor_id;sensor_type;location;lat;lon;timestamp;pressure;altitude;pressure_sealevel;temperature;humidity
11808;BME280;5961;42.640;23.380;2022-07-23T00:01:19;94366.25;;;24.32;47.29
11808;BME280;5961;42.640;23.380;2022-07-23T00:03:45;94366.34;;;24.25;47.17
11808;BME280;5961;42.640;23.380;2022-07-23T00:08:40;94373.16;;;24.36;48.57
11808;BME280;5961;42.640;23.380;2022-07-23T00:11:07;94364.06;;;24.23;48.82
11808;BME280;5961;42.640;23.380;2022-07-23T00:13:33;94365.97;;;24.26;49.24
11808;BME280;5961;42.640;23.380;2022-07-23T00:16:00;94376.63;;;24.14;50.05
11808;BME280;5961;42.640;23.380;2022-07-23T00:18:28;94375.56;;;24.04;50.84
11808;BME280;5961;42.640;23.380;2022-07-23T00:20:55;94378.28;;;23.74;52.05
11808;BME280;5961;42.640;23.380;2022-07-23T00:23:22;94368.47;;;23.53;53.18
11808;BME280;5961;42.640;23.380;2022-07-23T00:25:50;94378.03;;;23.27;54.48
11808;BME280;5961;42.640;23.380;2022-07-23T00:28:17;94381.72;;;23.07;55.30
11808;BME280;5961;42.640;23.380;2022-07-23T00:30:44;94382.69;;;22.89;55.99
11808;BME280;5961;42.640;23.380;2022-07-23T00:33:11;94371.19;;;22.75;56.24
11808;BME280;5961;42.640;23.380;2022-07-23T00:35:40;94377.31;;;22.82;56.36
11808;BME280;5961;42.640;23.380;2022-07-23T00:38:08;94376.97;;;22.80;56.36
11808;BME280;5961;42.640;23.380;2022-07-23T00:40:36;94378.88;;;22.83;56.69
11808;BME280;5961;42.640;23.380;2022-07-23T00:43:03;94380.31;;;22.91;57.04
11808;BME280;5961;42.640;23.380;2022-07-23T00:45:30;94380.31;;;22.91;57.32
11808;BME280;5961;42.640;23.380;2022-07-23T00:47:57;94371.78;;;22.97;57.32
11808;BME280;5961;42.640;23.380;2022-07-23T00:50:24;94379.56;;;22.91;57.68
11808;BME280;5961;42.640;23.380;2022-07-23T00:52:53;94377.28;;;22.86;58.04
11808;BME280;5961;42.640;23.380;2022-07-23T00:55:20;94366.63;;;22.65;58.42
11808;BME280;5961;42.640;23.380;2022-07-23T00:57:47;94375.03;;;22.81;58.36
11808;BME280;5961;42.640;23.380;2022-07-23T01:00:14;94371.19;;;22.78;58.03
11808;BME280;5961;42.640;23.380;2022-07-23T01:02:42;94375.03;;;22.77;57.83
11808;BME280;5961;42.640;23.380;2022-07-23T01:05:09;94347.31;;;22.59;57.47
11808;BME280;5961;42.640;23.380;2022-07-23T01:07:37;94370.38;;;22.81;57.57
11808;BME280;5961;42.640;23.380;2022-07-23T01:10:06;94365.78;;;22.75;57.57
11808;BME280;5961;42.640;23.380;2022-07-23T01:12:54;94308.84;;;22.30;57.80
11808;BME280;5961;42.640;23.380;2022-07-23T01:15:21;94375.84;;;22.74;58.13
11808;BME280;5961;42.640;23.380;2022-07-23T01:17:48;94369.34;;;22.61;58.71
11808;BME280;5961;42.640;23.380;2022-07-23T01:20:15;94362.78;;;22.66;58.43
11808;BME280;5961;42.640;23.380;2022-07-23T01:22:43;94365.84;;;22.68;58.58
11808;BME280;5961;42.640;23.380;2022-07-23T01:25:10;94368.97;;;22.63;58.59
11808;BME280;5961;42.640;23.380;2022-07-23T01:27:37;94353.44;;;22.67;58.04
11808;BME280;5961;42.640;23.380;2022-07-23T01:30:04;94366.16;;;22.73;57.52
11808;BME280;5961;42.640;23.380;2022-07-23T01:32:31;94363.00;;;22.82;57.11
11808;BME280;5961;42.640;23.380;2022-07-23T01:34:58;94360.22;;;22.89;56.51
11808;BME280;5961;42.640;23.380;2022-07-23T01:37:25;94359.53;;;22.81;55.93
11808;BME280;5961;42.640;23.380;2022-07-23T01:39:53;94355.78;;;22.61;56.30
11808;BME280;5961;42.640;23.380;2022-07-23T01:42:20;94326.59;;;22.38;56.06
11808;BME280;5961;42.640;23.380;2022-07-23T01:44:46;94355.63;;;22.38;56.23
11808;BME280;5961;42.640;23.380;2022-07-23T01:47:13;94358.69;;;22.36;56.84
11808;BME280;5961;42.640;23.380;2022-07-23T01:49:40;94353.03;;;22.24;57.14
11808;BME280;5961;42.640;23.380;2022-07-23T01:52:06;94363.44;;;22.25;56.96
11808;BME280;5961;42.640;23.380;2022-07-23T01:54:37;94348.03;;;22.15;57.20
11808;BME280;5961;42.640;23.380;2022-07-23T01:57:06;94359.66;;;22.12;57.26
11808;BME280;5961;42.640;23.380;2022-07-23T01:59:33;94366.22;;;22.15;57.06
11808;BME280;5961;42.640;23.380;2022-07-23T02:02:00;94365.47;;;22.11;57.35
11808;BME280;5961;42.640;23.380;2022-07-23T02:04:26;94359.41;;;21.93;57.79
11808;BME280;5961;42.640;23.380;2022-07-23T02:06:53;94367.94;;;21.80;58.56
11808;BME280;5961;42.640;23.380;2022-07-23T02:09:20;94371.78;;;21.83;58.52
11808;BME280;5961;42.640;23.380;2022-07-23T02:11:48;94367.59;;;21.75;58.72
11808;BME280;5961;42.640;23.380;2022-07-23T02:14:16;94367.19;;;21.80;58.67
11808;BME280;5961;42.640;23.380;2022-07-23T02:16:42;94364.88;;;21.78;59.17
11808;BME280;5961;42.640;23.380;2022-07-23T02:19:09;94372.59;;;21.73;59.51
11808;BME280;5961;42.640;23.380;2022-07-23T02:21:36;94372.69;;;21.59;59.44
11808;BME280;5961;42.640;23.380;2022-07-23T02:24:03;94371.47;;;21.67;59.30
11808;BME280;5961;42.640;23.380;2022-07-23T02:26:30;94366.50;;;21.55;59.42
11808;BME280;5961;42.640;23.380;2022-07-23T02:29:00;94373.91;;;21.44;59.26
11808;BME280;5961;42.640;23.380;2022-07-23T02:31:28;94384.72;;;21.51;59.14
11808;BME280;5961;42.640;23.380;2022-07-23T02:33:55;94371.56;;;21.46;59.60
11808;BME280;5961;42.640;23.380;2022-07-23T02:36:22;94365.41;;;21.45;59.73
11808;BME280;5961;42.640;23.380;2022-07-23T02:38:49;94370.41;;;21.47;59.91
11808;BME280;5961;42.640;23.380;2022-07-23T02:41:16;94368.09;;;21.49;60.02
11808;BME280;5961;42.640;23.380;2022-07-23T02:43:42;94373.09;;;21.54;60.55
11808;BME280;5961;42.640;23.380;2022-07-23T02:46:09;94361.19;;;21.33;61.04
11808;BME280;5961;42.640;23.380;2022-07-23T02:48:38;94368.94;;;21.35;61.48
11808;BME280;5961;42.640;23.380;2022-07-23T02:51:05;94374.34;;;21.28;62.26
11808;BME280;5961;42.640;23.380;2022-07-23T02:53:31;94385.97;;;21.14;63.34
11808;BME280;5961;42.640;23.380;2022-07-23T02:55:58;94371.31;;;20.94;64.32
11808;BME280;5961;42.640;23.380;2022-07-23T02:58:25;94378.66;;;20.90;64.67
11808;BME280;5961;42.640;23.380;2022-07-23T03:00:52;94385.25;;;20.75;65.75
11808;BME280;5961;42.640;23.380;2022-07-23T03:03:19;94381.41;;;20.55;67.30
11808;BME280;5961;42.640;23.380;2022-07-23T03:05:47;94376.00;;;20.41;68.70
11808;BME280;5961;42.640;23.380;2022-07-23T03:08:14;94379.44;;;20.23;69.86
11808;BME280;5961;42.640;23.380;2022-07-23T03:10:41;94378.25;;;20.10;70.64
11808;BME280;5961;42.640;23.380;2022-07-23T03:13:07;94379.78;;;20.04;71.01
11808;BME280;5961;42.640;23.380;2022-07-23T03:15:34;94389.81;;;20.07;70.95
11808;BME280;5961;42.640;23.380;2022-07-23T03:18:01;94390.63;;;20.18;70.61
11808;BME280;5961;42.640;23.380;2022-07-23T03:20:28;94386.38;;;20.17;70.82
11808;BME280;5961;42.640;23.380;2022-07-23T03:22:56;94399.84;;;20.14;71.22
11808;BME280;5961;42.640;23.380;2022-07-23T03:25:23;94395.63;;;20.09;71.63
11808;BME280;5961;42.640;23.380;2022-07-23T03:27:49;94388.28;;;20.06;71.80
11808;BME280;5961;42.640;23.380;2022-07-23T03:30:16;94381.72;;;19.93;71.49
11808;BME280;5961;42.640;23.380;2022-07-23T03:32:43;94404.88;;;20.08;71.64
11808;BME280;5961;42.640;23.380;2022-07-23T03:35:10;94402.13;;;19.98;72.33
11808;BME280;5961;42.640;23.380;2022-07-23T03:37:36;94399.84;;;20.00;72.13
11808;BME280;5961;42.640;23.380;2022-07-23T03:40:06;94405.22;;;19.96;72.13
11808;BME280;5961;42.640;23.380;2022-07-23T03:42:33;94407.94;;;20.00;71.85
11808;BME280;5961;42.640;23.380;2022-07-23T03:44:59;94404.06;;;19.94;72.11
11808;BME280;5961;42.640;23.380;2022-07-23T03:47:26;94398.25;;;19.92;72.03
11808;BME280;5961;42.640;23.380;2022-07-23T03:49:53;94399.06;;;19.96;71.93
11808;BME280;5961;42.640;23.380;2022-07-23T03:52:20;94378.19;;;19.75;71.82
11808;BME280;5961;42.640;23.380;2022-07-23T03:54:47;94361.59;;;19.66;71.69
11808;BME280;5961;42.640;23.380;2022-07-23T03:57:15;94408.31;;;20.05;71.86
11808;BME280;5961;42.640;23.380;2022-07-23T03:59:42;94412.97;;;20.08;71.85
11808;BME280;5961;42.640;23.380;2022-07-23T04:02:09;94414.09;;;20.07;71.80
11808;BME280;5961;42.640;23.380;2022-07-23T04:04:35;94414.91;;;20.11;71.94
11808;BME280;5961;42.640;23.380;2022-07-23T04:07:02;94411.44;;;20.14;71.87
11808;BME280;5961;42.640;23.380;2022-07-23T04:09:29;94411.44;;;20.21;71.65
11808;BME280;5961;42.640;23.380;2022-07-23T04:11:55;94406.06;;;20.21;71.77
11808;BME280;5961;42.640;23.380;2022-07-23T04:14:24;94409.16;;;20.34;71.52
11808;BME280;5961;42.640;23.380;2022-07-23T04:16:50;94411.88;;;20.48;70.88
11808;BME280;5961;42.640;23.380;2022-07-23T04:19:17;94403.03;;;20.55;70.48
11808;BME280;5961;42.640;23.380;2022-07-23T04:21:44;94409.16;;;20.73;70.21
11808;BME280;5961;42.640;23.380;2022-07-23T04:24:10;94401.44;;;20.82;69.55
11808;BME280;5961;42.640;23.380;2022-07-23T04:26:37;94415.34;;;21.09;68.61
11808;BME280;5961;42.640;23.380;2022-07-23T04:29:04;94428.03;;;21.19;68.02
11808;BME280;5961;42.640;23.380;2022-07-23T04:31:32;94412.97;;;21.21;67.53
11808;BME280;5961;42.640;23.380;2022-07-23T04:33:59;94431.47;;;21.37;66.73
11808;BME280;5961;42.640;23.380;2022-07-23T04:36:25;94423.00;;;21.35;66.55
11808;BME280;5961;42.640;23.380;2022-07-23T04:38:52;94435.72;;;21.42;65.53
11808;BME280;5961;42.640;23.380;2022-07-23T04:41:19;94432.25;;;21.45;64.46
11808;BME280;5961;42.640;23.380;2022-07-23T04:43:46;94421.03;;;21.43;65.57
11808;BME280;5961;42.640;23.380;2022-07-23T04:46:12;94434.47;;;21.64;64.93
11808;BME280;5961;42.640;23.380;2022-07-23T04:48:41;94435.25;;;21.64;64.48
11808;BME280;5961;42.640;23.380;2022-07-23T04:51:08;94439.06;;;21.84;64.69
11808;BME280;5961;42.640;23.380;2022-07-23T04:53:36;94428.22;;;21.92;65.11
11808;BME280;5961;42.640;23.380;2022-07-23T04:56:04;94435.13;;;22.03;65.25
11808;BME280;5961;42.640;23.380;2022-07-23T04:58:30;94449.72;;;22.20;65.15
11808;BME280;5961;42.640;23.380;2022-07-23T05:00:57;94446.22;;;22.26;65.38
11808;BME280;5961;42.640;23.380;2022-07-23T05:03:24;94448.06;;;22.40;64.80
11808;BME280;5961;42.640;23.380;2022-07-23T05:05:52;94445.69;;;22.46;64.24
11808;BME280;5961;42.640;23.380;2022-07-23T05:08:19;94447.19;;;22.54;63.55
11808;BME280;5961;42.640;23.380;2022-07-23T05:10:46;94439.78;;;22.61;63.17
11808;BME280;5961;42.640;23.380;2022-07-23T05:13:14;94392.03;;;22.30;62.77
11808;BME280;5961;42.640;23.380;2022-07-23T05:15:41;94446.72;;;22.69;62.90
11808;BME280;5961;42.640;23.380;2022-07-23T05:18:07;94458.63;;;22.79;62.67
11808;BME280;5961;42.640;23.380;2022-07-23T05:20:34;94442.34;;;22.82;62.98
11808;BME280;5961;42.640;23.380;2022-07-23T05:23:02;94451.94;;;22.94;62.08
11808;BME280;5961;42.640;23.380;2022-07-23T05:25:29;94446.81;;;23.03;60.92
11808;BME280;5961;42.640;23.380;2022-07-23T05:27:56;94459.13;;;23.15;61.02
11808;BME280;5961;42.640;23.380;2022-07-23T05:30:23;94462.91;;;23.24;60.42
11808;BME280;5961;42.640;23.380;2022-07-23T05:32:49;94459.69;;;23.36;59.63
11808;BME280;5961;42.640;23.380;2022-07-23T05:35:16;94459.69;;;23.36;59.54
11808;BME280;5961;42.640;23.380;2022-07-23T05:37:43;94456.91;;;23.47;58.50
11808;BME280;5961;42.640;23.380;2022-07-23T05:40:12;94461.50;;;23.54;57.03
11808;BME280;5961;42.640;23.380;2022-07-23T05:42:40;94451.72;;;23.60;57.25
11808;BME280;5961;42.640;23.380;2022-07-23T05:45:08;94455.53;;;23.66;56.97
11808;BME280;5961;42.640;23.380;2022-07-23T05:47:42;94460.88;;;23.73;57.27
11808;BME280;5961;42.640;23.380;2022-07-23T05:50:10;94445.31;;;23.77;56.31
11808;BME280;5961;42.640;23.380;2022-07-23T05:52:37;94449.94;;;23.80;56.18
11808;BME280;5961;42.640;23.380;2022-07-23T05:55:05;94459.13;;;23.89;56.06
11808;BME280;5961;42.640;23.380;2022-07-23T05:57:33;94454.03;;;23.95;54.88
11808;BME280;5961;42.640;23.380;2022-07-23T06:00:00;94465.50;;;24.06;54.73
11808;BME280;5961;42.640;23.380;2022-07-23T06:02:27;94458.88;;;24.14;54.51
11808;BME280;5961;42.640;23.380;2022-07-23T06:04:54;94458.72;;;24.25;54.65
11808;BME280;5961;42.640;23.380;2022-07-23T06:07:21;94462.13;;;24.32;54.67
11808;BME280;5961;42.640;23.380;2022-07-23T06:09:47;94458.88;;;24.41;54.41
11808;BME280;5961;42.640;23.380;2022-07-23T06:12:14;94457.94;;;24.51;55.55
11808;BME280;5961;42.640;23.380;2022-07-23T06:14:43;94447.41;;;24.56;56.31
11808;BME280;5961;42.640;23.380;2022-07-23T06:17:10;94424.25;;;24.45;56.68
11808;BME280;5961;42.640;23.380;2022-07-23T06:19:36;94452.97;;;24.73;56.53
11808;BME280;5961;42.640;23.380;2022-07-23T06:22:03;94455.59;;;24.80;57.11
11808;BME280;5961;42.640;23.380;2022-07-23T06:24:30;94456.34;;;24.84;57.00
11808;BME280;5961;42.640;23.380;2022-07-23T06:26:56;94454.69;;;24.90;57.28
11808;BME280;5961;42.640;23.380;2022-07-23T06:29:23;94451.50;;;24.95;56.67
11808;BME280;5961;42.640;23.380;2022-07-23T06:31:51;94451.78;;;25.00;56.85
11808;BME280;5961;42.640;23.380;2022-07-23T06:34:18;94446.19;;;25.11;56.63
11808;BME280;5961;42.640;23.380;2022-07-23T06:36:45;94446.88;;;25.15;55.88
11808;BME280;5961;42.640;23.380;2022-07-23T06:39:11;94450.31;;;25.19;55.46
11808;BME280;5961;42.640;23.380;2022-07-23T06:41:38;94453.31;;;25.25;54.28
11808;BME280;5961;42.640;23.380;2022-07-23T06:44:05;94446.97;;;25.31;53.93
11808;BME280;5961;42.640;23.380;2022-07-23T06:46:32;94450.06;;;25.33;52.84
11808;BME280;5961;42.640;23.380;2022-07-23T06:49:00;94450.75;;;25.37;52.39
11808;BME280;5961;42.640;23.380;2022-07-23T06:51:27;94455.31;;;25.44;51.85
11808;BME280;5961;42.640;23.380;2022-07-23T06:53:53;94449.81;;;25.47;50.94
11808;BME280;5961;42.640;23.380;2022-07-23T06:56:20;94445.78;;;25.55;50.42
11808;BME280;5961;42.640;23.380;2022-07-23T06:58:47;94453.84;;;25.62;49.71
11808;BME280;5961;42.640;23.380;2022-07-23T07:01:13;94454.88;;;25.69;49.12
11808;BME280;5961;42.640;23.380;2022-07-23T07:03:40;94441.63;;;25.71;49.07
11808;BME280;5961;42.640;23.380;2022-07-23T07:06:08;94443.72;;;25.83;48.86
11808;BME280;5961;42.640;23.380;2022-07-23T07:08:35;94454.44;;;25.90;48.63
11808;BME280;5961;42.640;23.380;2022-07-23T07:11:03;94446.47;;;25.99;48.84
11808;BME280;5961;42.640;23.380;2022-07-23T07:13:29;94427.91;;;25.94;48.68
11808;BME280;5961;42.640;23.380;2022-07-23T07:15:56;94438.81;;;26.13;47.75
11808;BME280;5961;42.640;23.380;2022-07-23T07:18:23;94433.72;;;26.15;47.67
11808;BME280;5961;42.640;23.380;2022-07-23T07:20:50;94438.94;;;26.26;47.79
11808;BME280;5961;42.640;23.380;2022-07-23T07:23:18;94440.34;;;26.34;47.67
11808;BME280;5961;42.640;23.380;2022-07-23T07:25:45;94438.63;;;26.40;47.52
11808;BME280;5961;42.640;23.380;2022-07-23T07:28:12;94384.72;;;26.12;47.57
11808;BME280;5961;42.640;23.380;2022-07-23T07:30:39;94437.63;;;26.50;47.10
11808;BME280;5961;42.640;23.380;2022-07-23T07:33:06;94429.97;;;26.61;45.85
11808;BME280;5961;42.640;23.380;2022-07-23T07:35:33;94422.47;;;26.65;45.96
11808;BME280;5961;42.640;23.380;2022-07-23T07:38:00;94430.09;;;26.74;45.62
11808;BME280;5961;42.640;23.380;2022-07-23T07:40:28;94429.50;;;26.83;45.24
11808;BME280;5961;42.640;23.380;2022-07-23T07:42:54;94422.34;;;26.89;45.05
11808;BME280;5961;42.640;23.380;2022-07-23T07:45:23;94419.44;;;26.96;45.94
11808;BME280;5961;42.640;23.380;2022-07-23T07:47:51;94415.44;;;27.00;45.86
11808;BME280;5961;42.640;23.380;2022-07-23T07:50:18;94419.25;;;27.03;45.60
11808;BME280;5961;42.640;23.380;2022-07-23T07:52:44;94417.63;;;27.05;46.18
11808;BME280;5961;42.640;23.380;2022-07-23T07:55:11;94419.00;;;27.13;46.20
11808;BME280;5961;42.640;23.380;2022-07-23T07:57:40;94421.13;;;27.22;46.26
11808;BME280;5961;42.640;23.380;2022-07-23T08:00:09;94419.41;;;27.28;46.05
11808;BME280;5961;42.640;23.380;2022-07-23T08:02:41;94420.44;;;27.34;44.32
11808;BME280;5961;42.640;23.380;2022-07-23T08:05:08;94409.16;;;27.32;44.23
11808;BME280;5961;42.640;23.380;2022-07-23T08:07:35;94418.19;;;27.45;43.84
11808;BME280;5961;42.640;23.380;2022-07-23T08:10:05;94419.22;;;27.51;43.25
11808;BME280;5961;42.640;23.380;2022-07-23T08:12:44;94418.25;;;27.58;42.82
11808;BME280;5961;42.640;23.380;2022-07-23T08:15:11;94410.38;;;27.60;42.76
11808;BME280;5961;42.640;23.380;2022-07-23T08:17:38;94416.75;;;27.69;42.29
11808;BME280;5961;42.640;23.380;2022-07-23T08:20:06;94415.81;;;27.76;41.90
11808;BME280;5961;42.640;23.380;2022-07-23T08:22:47;94411.75;;;27.80;42.11
11808;BME280;5961;42.640;23.380;2022-07-23T08:25:15;94410.03;;;27.87;42.60
11808;BME280;5961;42.640;23.380;2022-07-23T08:27:43;94418.47;;;27.92;42.65
11808;BME280;5961;42.640;23.380;2022-07-23T08:30:10;94408.66;;;27.95;41.82
11808;BME280;5961;42.640;23.380;2022-07-23T08:32:51;94401.09;;;27.99;41.47
11808;BME280;5961;42.640;23.380;2022-07-23T08:35:21;94408.78;;;28.04;41.07
11808;BME280;5961;42.640;23.380;2022-07-23T08:37:49;94410.88;;;28.12;41.48
11808;BME280;5961;42.640;23.380;2022-07-23T08:40:15;94415.38;;;28.19;41.90
11808;BME280;5961;42.640;23.380;2022-07-23T08:42:45;94418.34;;;28.24;41.94
11808;BME280;5961;42.640;23.380;2022-07-23T08:45:16;94400.75;;;28.25;41.86
11808;BME280;5961;42.640;23.380;2022-07-23T08:47:43;94371.53;;;28.10;42.14
11808;BME280;5961;42.640;23.380;2022-07-23T08:50:10;94406.19;;;28.38;41.81
11808;BME280;5961;42.640;23.380;2022-07-23T08:52:37;94400.22;;;28.43;42.06
11808;BME280;5961;42.640;23.380;2022-07-23T08:55:06;94406.97;;;28.51;42.43
11808;BME280;5961;42.640;23.380;2022-07-23T08:57:33;94405.22;;;28.57;42.34
11808;BME280;5961;42.640;23.380;2022-07-23T09:00:03;94403.81;;;28.65;42.75
11808;BME280;5961;42.640;23.380;2022-07-23T09:02:30;94399.00;;;28.69;42.13
11808;BME280;5961;42.640;23.380;2022-07-23T09:04:56;94404.28;;;28.76;41.34
11808;BME280;5961;42.640;23.380;2022-07-23T09:07:23;94385.34;;;28.69;40.90
11808;BME280;5961;42.640;23.380;2022-07-23T09:10:05;94402.25;;;28.90;41.00
11808;BME280;5961;42.640;23.380;2022-07-23T09:12:32;94402.47;;;28.95;39.94
11808;BME280;5961;42.640;23.380;2022-07-23T09:15:05;94396.47;;;29.00;39.08
11808;BME280;5961;42.640;23.380;2022-07-23T09:17:41;94405.63;;;29.06;39.21
11808;BME280;5961;42.640;23.380;2022-07-23T09:20:10;94405.06;;;29.11;38.14
11808;BME280;5961;42.640;23.380;2022-07-23T09:22:37;94392.03;;;29.15;38.10
11808;BME280;5961;42.640;23.380;2022-07-23T09:25:07;94389.50;;;29.21;38.13
11808;BME280;5961;42.640;23.380;2022-07-23T09:27:52;94389.28;;;29.28;37.10
11808;BME280;5961;42.640;23.380;2022-07-23T09:30:22;94385.69;;;29.31;36.61
11808;BME280;5961;42.640;23.380;2022-07-23T09:33:06;94393.97;;;29.40;36.93
11808;BME280;5961;42.640;23.380;2022-07-23T09:35:46;94389.44;;;29.46;36.86
11808;BME280;5961;42.640;23.380;2022-07-23T09:38:13;94386.13;;;29.51;37.03
11808;BME280;5961;42.640;23.380;2022-07-23T09:40:41;94386.19;;;29.60;36.95
11808;BME280;5961;42.640;23.380;2022-07-23T09:43:07;94384.41;;;29.66;37.56
11808;BME280;5961;42.640;23.380;2022-07-23T09:45:36;94387.22;;;29.75;37.26
11808;BME280;5961;42.640;23.380;2022-07-23T09:48:11;94378.78;;;29.82;36.68
11808;BME280;5961;42.640;23.380;2022-07-23T09:50:38;94375.00;;;29.89;36.15
11808;BME280;5961;42.640;23.380;2022-07-23T09:53:05;94372.13;;;29.92;36.44
11808;BME280;5961;42.640;23.380;2022-07-23T09:55:33;94376.47;;;30.03;35.37
11808;BME280;5961;42.640;23.380;2022-07-23T09:58:02;94372.81;;;30.06;34.11
11808;BME280;5961;42.640;23.380;2022-07-23T10:00:29;94365.25;;;30.10;33.80
11808;BME280;5961;42.640;23.380;2022-07-23T10:02:59;94368.03;;;30.19;33.92
11808;BME280;5961;42.640;23.380;2022-07-23T10:05:27;94362.59;;;30.28;35.05
11808;BME280;5961;42.640;23.380;2022-07-23T10:07:55;94361.97;;;30.33;32.97
11808;BME280;5961;42.640;23.380;2022-07-23T10:10:26;94360.22;;;30.39;33.04
11808;BME280;5961;42.640;23.380;2022-07-23T10:12:53;94359.94;;;30.46;32.53
11808;BME280;5961;42.640;23.380;2022-07-23T10:15:46;94327.53;;;30.32;32.66
11808;BME280;5961;42.640;23.380;2022-07-23T10:18:14;94361.81;;;30.58;33.12
11808;BME280;5961;42.640;23.380;2022-07-23T10:20:41;94351.78;;;30.64;30.37
11808;BME280;5961;42.640;23.380;2022-07-23T10:23:18;94354.84;;;30.75;30.07
11808;BME280;5961;42.640;23.380;2022-07-23T10:25:54;94356.84;;;30.84;28.64
11808;BME280;5961;42.640;23.380;2022-07-23T10:28:44;94342.69;;;30.85;28.53
11808;BME280;5961;42.640;23.380;2022-07-23T10:31:20;94310.31;;;30.71;26.82
11808;BME280;5961;42.640;23.380;2022-07-23T10:34:01;94349.28;;;31.06;25.99
11808;BME280;5961;42.640;23.380;2022-07-23T10:36:32;94346.56;;;31.15;25.40
11808;BME280;5961;42.640;23.380;2022-07-23T10:39:07;94288.09;;;30.87;25.05
11808;BME280;5961;42.640;23.380;2022-07-23T10:41:36;94329.31;;;31.24;26.26
11808;BME280;5961;42.640;23.380;2022-07-23T10:44:08;94342.44;;;31.29;26.53
11808;BME280;5961;42.640;23.380;2022-07-23T10:46:35;94329.00;;;31.31;26.02
11808;BME280;5961;42.640;23.380;2022-07-23T10:49:25;94320.91;;;31.36;26.10
11808;BME280;5961;42.640;23.380;2022-07-23T10:52:17;94326.41;;;31.45;25.63
11808;BME280;5961;42.640;23.380;2022-07-23T10:54:46;94322.44;;;31.56;26.04
11808;BME280;5961;42.640;23.380;2022-07-23T10:57:14;94319.25;;;31.66;26.08
11808;BME280;5961;42.640;23.380;2022-07-23T11:00:16;94314.63;;;31.81;23.39
11808;BME280;5961;42.640;23.380;2022-07-23T11:02:47;94312.16;;;31.92;21.17
11808;BME280;5961;42.640;23.380;2022-07-23T11:05:17;94256.03;;;31.66;22.24
11808;BME280;5961;42.640;23.380;2022-07-23T11:10:50;94293.44;;;32.24;20.91
11808;BME280;5961;42.640;23.380;2022-07-23T11:13:44;94280.91;;;32.23;20.08
11808;BME280;5961;42.640;23.380;2022-07-23T11:16:28;94302.13;;;32.55;20.72
11808;BME280;5961;42.640;23.380;2022-07-23T11:19:06;94295.66;;;32.67;20.34
11808;BME280;5961;42.640;23.380;2022-07-23T11:21:50;94301.72;;;32.80;20.02
11808;BME280;5961;42.640;23.380;2022-07-23T11:24:19;94294.25;;;32.95;19.48
11808;BME280;5961;42.640;23.380;2022-07-23T11:26:50;94285.31;;;33.09;19.56
11808;BME280;5961;42.640;23.380;2022-07-23T11:29:48;94296.56;;;33.21;18.02
11808;BME280;5961;42.640;23.380;2022-07-23T11:32:42;94277.03;;;33.33;18.13
11808;BME280;5961;42.640;23.380;2022-07-23T11:35:23;94284.53;;;33.47;17.86
11808;BME280;5961;42.640;23.380;2022-07-23T11:37:52;94282.16;;;33.55;17.52
11808;BME280;5961;42.640;23.380;2022-07-23T11:40:24;94283.44;;;33.69;17.64
11808;BME280;5961;42.640;23.380;2022-07-23T11:42:54;94284.84;;;33.79;16.38
11808;BME280;5961;42.640;23.380;2022-07-23T11:45:22;94272.97;;;33.87;17.01
11808;BME280;5961;42.640;23.380;2022-07-23T11:47:49;94279.91;;;33.97;17.71
11808;BME280;5961;42.640;23.380;2022-07-23T11:50:16;94278.88;;;34.09;17.67
11808;BME280;5961;42.640;23.380;2022-07-23T11:52:43;94270.19;;;34.16;17.12
11808;BME280;5961;42.640;23.380;2022-07-23T11:55:11;94270.38;;;34.28;16.93
11808;BME280;5961;42.640;23.380;2022-07-23T11:57:41;94267.47;;;34.37;17.30
11808;BME280;5961;42.640;23.380;2022-07-23T12:00:10;94263.84;;;34.45;18.01
11808;BME280;5961;42.640;23.380;2022-07-23T12:02:37;94264.69;;;34.51;17.59
11808;BME280;5961;42.640;23.380;2022-07-23T12:05:05;94266.88;;;34.62;17.84
11808;BME280;5961;42.640;23.380;2022-07-23T12:07:34;94259.16;;;34.66;17.65
11808;BME280;5961;42.640;23.380;2022-07-23T12:10:13;94268.81;;;34.76;17.04
11808;BME280;5961;42.640;23.380;2022-07-23T12:12:42;94260.69;;;34.87;17.38
11808;BME280;5961;42.640;23.380;2022-07-23T12:15:12;94261.22;;;34.91;16.08
11808;BME280;5961;42.640;23.380;2022-07-23T12:17:41;94260.81;;;34.98;16.54
11808;BME280;5961;42.640;23.380;2022-07-23T12:20:12;94257.34;;;35.03;16.26
11808;BME280;5961;42.640;23.380;2022-07-23T12:22:41;94252.97;;;35.11;15.99
11808;BME280;5961;42.640;23.380;2022-07-23T12:25:10;94254.25;;;35.16;15.54
11808;BME280;5961;42.640;23.380;2022-07-23T12:27:39;94238.53;;;35.28;15.72
11808;BME280;5961;42.640;23.380;2022-07-23T12:30:16;94241.72;;;35.41;15.75
11808;BME280;5961;42.640;23.380;2022-07-23T12:32:44;94249.84;;;35.50;15.87
11808;BME280;5961;42.640;23.380;2022-07-23T12:35:12;94243.59;;;35.55;14.40
11808;BME280;5961;42.640;23.380;2022-07-23T12:37:41;94232.41;;;35.64;13.94
11808;BME280;5961;42.640;23.380;2022-07-23T12:40:28;94230.97;;;35.74;13.90
11808;BME280;5961;42.640;23.380;2022-07-23T12:42:58;94233.56;;;35.83;15.01
11808;BME280;5961;42.640;23.380;2022-07-23T12:45:25;94232.59;;;35.86;14.05
11808;BME280;5961;42.640;23.380;2022-07-23T12:48:04;94234.19;;;35.98;14.96
11808;BME280;5961;42.640;23.380;2022-07-23T12:50:43;94219.63;;;36.03;15.05
11808;BME280;5961;42.640;23.380;2022-07-23T12:53:13;94225.31;;;36.14;15.19
11808;BME280;5961;42.640;23.380;2022-07-23T12:55:42;94223.81;;;36.19;14.56
11808;BME280;5961;42.640;23.380;2022-07-23T12:58:13;94225.38;;;36.25;13.50
11808;BME280;5961;42.640;23.380;2022-07-23T13:00:56;94223.66;;;36.33;13.52
11808;BME280;5961;42.640;23.380;2022-07-23T13:03:25;94230.47;;;36.38;13.63
11808;BME280;5961;42.640;23.380;2022-07-23T13:05:52;94215.38;;;36.45;13.49
11808;BME280;5961;42.640;23.380;2022-07-23T13:08:20;94212.38;;;36.43;13.23
11808;BME280;5961;42.640;23.380;2022-07-23T13:10:46;94220.22;;;36.50;14.03
11808;BME280;5961;42.640;23.380;2022-07-23T13:13:15;94220.28;;;36.61;14.04
11808;BME280;5961;42.640;23.380;2022-07-23T13:15:42;94215.00;;;36.63;13.94